sensor_id;sensor_type;location;lat;lon;timestamp;temperature;humidity
9201;DHT22;4635;48.686;9.008;2023-04-01T00:02:15;6.80;1.00
9201;DHT22;4635;48.686;9.008;2023-04-01T00:04:54;6.80;13.10
9201;DHT22;4635;48.686;9.008;2023-04-01T00:07:26;6.90;21.00
9201;DHT22;4635;48.686;9.008;2023-04-01T00:10:10;6.90;1.00
9201;DHT22;4635;48.686;9.008;2023-04-01T00:12:48;6.90;1.00
9201;DHT22;4635;48.686;9.008;2023-04-01T00:15:25;6.90;27.40
9201;DHT22;4635;48.686;9.008;2023-04-01T00:20:56;6.90;1.00
9201;DHT22;4635;48.686;9.008;2023-04-01T00:23:32;6.90;32.80
9201;DHT22;4635;48.686;9.008;2023-04-01T00:26:15;6.90;1.00
9201;DHT22;4635;48.686;9.008;2023-04-01T00:28:49;7.00;1.00
9201;DHT22;4635;48.686;9.008;2023-04-01T00:31:30;6.90;1.00
9201;DHT22;4635;48.686;9.008;2023-04-01T00:34:09;7.10;1.00
9201;DHT22;4635;48.686;9.008;2023-04-01T00:39:58;7.20;1.00
9201;DHT22;4635;48.686;9.008;2023-04-01T00:42:41;7.10;1.00
9201;DHT22;4635;48.686;9.008;2023-04-01T00:45:26;7.10;1.00
9201;DHT22;4635;48.686;9.008;2023-04-01T00:48:14;7.00;1.00
9201;DHT22;4635;48.686;9.008;2023-04-01T00:50:48;7.00;1.00
9201;DHT22;4635;48.686;9.008;2023-04-01T00:53:32;7.00;1.00
9201;DHT22;4635;48.686;9.008;2023-04-01T00:56:22;7.00;1.00
9201;DHT22;4635;48.686;9.008;2023-04-01T00:58:56;7.00;1.00
9201;DHT22;4635;48.686;9.008;2023-04-01T01:01:42;7.00;1.00
9201;DHT22;4635;48.686;9.008;2023-04-01T01:04:23;7.00;1.00
9201;DHT22;4635;48.686;9.008;2023-04-01T01:07:12;6.80;1.00
9201;DHT22;4635;48.686;9.008;2023-04-01T01:09:55;6.80;1.00
9201;DHT22;4635;48.686;9.008;2023-04-01T01:12:50;6.80;1.00
9201;DHT22;4635;48.686;9.008;2023-04-01T01:15:32;6.80;1.00
9201;DHT22;4635;48.686;9.008;2023-04-01T01:18:18;6.80;1.00
9201;DHT22;4635;48.686;9.008;2023-04-01T01:21:22;6.80;99.90
9201;DHT22;4635;48.686;9.008;2023-04-01T01:24:14;6.80;1.00
9201;DHT22;4635;48.686;9.008;2023-04-01T01:26:55;6.80;1.00
9201;DHT22;4635;48.686;9.008;2023-04-01T01:29:51;6.80;6.30
9201;DHT22;4635;48.686;9.008;2023-04-01T01:38:37;6.90;36.50
9201;DHT22;4635;48.686;9.008;2023-04-01T01:41:25;6.90;1.00
9201;DHT22;4635;48.686;9.008;2023-04-01T02:04:38;6.70;1.00
9201;DHT22;4635;48.686;9.008;2023-04-01T02:07:27;6.70;1.00
9201;DHT22;4635;48.686;9.008;2023-04-01T02:10:11;6.70;1.00
9201;DHT22;4635;48.686;9.008;2023-04-01T02:12:48;6.60;1.00
9201;DHT22;4635;48.686;9.008;2023-04-01T02:15:33;6.60;1.00
9201;DHT22;4635;48.686;9.008;2023-04-01T02:18:18;6.60;12.40
9201;DHT22;4635;48.686;9.008;2023-04-01T02:21:00;6.50;1.00
9201;DHT22;4635;48.686;9.008;2023-04-01T02:23:45;6.60;1.00
9201;DHT22;4635;48.686;9.008;2023-04-01T02:26:30;6.50;1.00
9201;DHT22;4635;48.686;9.008;2023-04-01T02:29:06;6.50;1.00
9201;DHT22;4635;48.686;9.008;2023-04-01T02:31:54;6.40;97.90
9201;DHT22;4635;48.686;9.008;2023-04-01T02:34:43;6.40;1.00
9201;DHT22;4635;48.686;9.008;2023-04-01T02:37:27;6.40;1.00
9201;DHT22;4635;48.686;9.008;2023-04-01T02:40:06;6.30;1.00
9201;DHT22;4635;48.686;9.008;2023-04-01T02:42:49;6.30;3.00
9201;DHT22;4635;48.686;9.008;2023-04-01T02:45:23;6.30;1.00
9201;DHT22;4635;48.686;9.008;2023-04-01T02:48:06;6.20;1.00
9201;DHT22;4635;48.686;9.008;2023-04-01T02:53:58;6.00;1.00
9201;DHT22;4635;48.686;9.008;2023-04-01T02:56:45;6.10;1.00
9201;DHT22;4635;48.686;9.008;2023-04-01T02:59:30;6.10;1.00
9201;DHT22;4635;48.686;9.008;2023-04-01T03:02:17;6.10;1.00
9201;DHT22;4635;48.686;9.008;2023-04-01T03:05:02;6.20;1.00
9201;DHT22;4635;48.686;9.008;2023-04-01T03:07:34;6.20;1.00
9201;DHT22;4635;48.686;9.008;2023-04-01T03:10:13;6.20;1.00
9201;DHT22;4635;48.686;9.008;2023-04-01T03:13:02;6.20;1.00
9201;DHT22;4635;48.686;9.008;2023-04-01T03:15:36;6.20;1.00
9201;DHT22;4635;48.686;9.008;2023-04-01T03:18:18;6.30;1.00
9201;DHT22;4635;48.686;9.008;2023-04-01T03:21:12;6.20;1.00
9201;DHT22;4635;48.686;9.008;2023-04-01T03:23:44;6.30;1.00
9201;DHT22;4635;48.686;9.008;2023-04-01T03:26:24;6.30;1.00
9201;DHT22;4635;48.686;9.008;2023-04-01T03:32:02;6.40;1.00
9201;DHT22;4635;48.686;9.008;2023-04-01T03:34:35;6.50;1.00
9201;DHT22;4635;48.686;9.008;2023-04-01T03:37:11;6.40;1.00
9201;DHT22;4635;48.686;9.008;2023-04-01T03:39:44;6.40;1.00
9201;DHT22;4635;48.686;9.008;2023-04-01T03:42:24;6.40;99.90
9201;DHT22;4635;48.686;9.008;2023-04-01T03:45:07;6.50;1.00
9201;DHT22;4635;48.686;9.008;2023-04-01T03:47:40;6.50;1.00
9201;DHT22;4635;48.686;9.008;2023-04-01T03:50:11;6.50;1.00
9201;DHT22;4635;48.686;9.008;2023-04-01T03:52:55;6.50;99.90
9201;DHT22;4635;48.686;9.008;2023-04-01T03:55:40;6.40;25.70
9201;DHT22;4635;48.686;9.008;2023-04-01T03:58:34;6.60;1.00
9201;DHT22;4635;48.686;9.008;2023-04-01T04:01:14;6.50;1.00
9201;DHT22;4635;48.686;9.008;2023-04-01T04:03:58;6.40;1.00
9201;DHT22;4635;48.686;9.008;2023-04-01T04:10:13;6.30;1.00
9201;DHT22;4635;48.686;9.008;2023-04-01T04:12:49;6.20;1.00
9201;DHT22;4635;48.686;9.008;2023-04-01T04:15:32;6.20;1.00
9201;DHT22;4635;48.686;9.008;2023-04-01T04:18:13;6.10;99.90
9201;DHT22;4635;48.686;9.008;2023-04-01T04:20:47;6.10;99.90
9201;DHT22;4635;48.686;9.008;2023-04-01T04:23:32;6.10;1.00
9201;DHT22;4635;48.686;9.008;2023-04-01T04:26:11;6.00;1.00
9201;DHT22;4635;48.686;9.008;2023-04-01T04:28:44;6.00;1.00
9201;DHT22;4635;48.686;9.008;2023-04-01T04:31:22;5.90;1.00
9201;DHT22;4635;48.686;9.008;2023-04-01T04:34:07;5.90;1.00
9201;DHT22;4635;48.686;9.008;2023-04-01T04:36:51;6.00;1.00
9201;DHT22;4635;48.686;9.008;2023-04-01T04:39:40;6.00;1.00
9201;DHT22;4635;48.686;9.008;2023-04-01T04:42:13;5.90;1.00
9201;DHT22;4635;48.686;9.008;2023-04-01T04:44:52;6.00;1.00
9201;DHT22;4635;48.686;9.008;2023-04-01T04:47:32;6.00;1.00
9201;DHT22;4635;48.686;9.008;2023-04-01T04:50:10;6.00;1.00
9201;DHT22;4635;48.686;9.008;2023-04-01T04:52:52;6.00;1.00
9201;DHT22;4635;48.686;9.008;2023-04-01T05:04:40;6.00;1.00
9201;DHT22;4635;48.686;9.008;2023-04-01T05:07:27;6.10;1.00
9201;DHT22;4635;48.686;9.008;2023-04-01T05:10:06;6.20;1.00
9201;DHT22;4635;48.686;9.008;2023-04-01T05:12:40;6.20;1.00
9201;DHT22;4635;48.686;9.008;2023-04-01T05:15:23;6.20;99.90
9201;DHT22;4635;48.686;9.008;2023-04-01T05:18:06;6.20;1.00
9201;DHT22;4635;48.686;9.008;2023-04-01T16:59:29;9.20;1.00
9201;DHT22;4635;48.686;9.008;2023-04-01T17:02:37;9.20;1.00
9201;DHT22;4635;48.686;9.008;2023-04-01T17:11:56;9.20;1.70
